Time;durP1;ratioP1;P1;durP2;ratioP2;P2;SDS_P1;SDS_P2;PMS_P1;PMS_P2;Temp;Humidity;BMP_temperature;BMP_pressure;BME280_temperature;BME280_humidity;BME280_pressure;Samples;Min_cycle;Max_cycle;Signal;HPM_P1;HPM_P2
2023/03/04 00:00:15;;;;;;;30.52;17.48;;;;;;;5.95;59.48;101148.78;5047125;28;20057;-61
2023/03/04 00:02:43;;;;;;;32.45;18.10;;;;;;;5.93;58.93;101157.31;5047393;28;20045;-60
2023/03/04 00:05:14;;;;;;;32.40;17.60;;;;;;;5.84;59.31;101142.34;5048238;28;20383;-60
2023/03/04 00:07:42;;;;;;;32.50;17.30;;;;;;;5.87;59.00;101145.38;5051274;28;20060;-60
2023/03/04 00:10:11;;;;;;;29.85;17.63;;;;;;;5.86;58.89;101151.19;5051742;28;20402;-60
2023/03/04 00:12:41;;;;;;;33.58;17.13;;;;;;;5.84;58.96;101153.38;5052082;27;20068;-59
2023/03/04 00:15:10;;;;;;;28.83;16.70;;;;;;;5.68;59.44;101147.72;5047033;28;20072;-61
2023/03/04 00:17:37;;;;;;;32.15;17.73;;;;;;;5.65;60.17;101142.75;5048374;28;20407;-60
2023/03/04 00:20:09;;;;;;;30.17;15.63;;;;;;;5.77;59.57;101139.78;5049183;27;20040;-60
2023/03/04 00:22:38;;;;;;;28.58;16.45;;;;;;;5.81;59.79;101137.31;5052306;28;20071;-59
2023/03/04 00:25:09;;;;;;;30.67;16.15;;;;;;;5.80;59.83;101138.44;5049138;27;20064;-60
2023/03/04 00:27:37;;;;;;;29.40;18.08;;;;;;;5.81;59.61;101134.56;5051826;28;20053;-60
2023/03/04 00:30:05;;;;;;;28.52;15.90;;;;;;;5.81;59.62;101138.13;5050112;28;20052;-60
2023/03/04 00:32:36;;;;;;;32.65;17.77;;;;;;;5.84;59.88;101147.84;5049591;27;20060;-60
2023/03/04 00:35:05;;;;;;;32.85;18.05;;;;;;;5.86;59.77;101138.19;5056765;28;20406;-60
2023/03/04 00:37:32;;;;;;;34.15;17.40;;;;;;;5.92;59.80;101136.28;5051587;28;20063;-61
2023/03/04 00:40:01;;;;;;;29.58;16.67;;;;;;;5.97;59.87;101139.13;5058396;28;20048;-59
2023/03/04 00:42:28;;;;;;;34.45;18.13;;;;;;;6.00;59.64;101134.97;5058368;28;20045;-59
2023/03/04 00:44:56;;;;;;;31.45;17.30;;;;;;;6.00;59.65;101132.22;5051205;28;20056;-60
2023/03/04 00:47:23;;;;;;;28.77;16.30;;;;;;;6.07;59.68;101130.88;5051470;28;20053;-60
2023/03/04 00:49:54;;;;;;;29.15;16.67;;;;;;;6.10;59.10;101130.34;5052233;28;20049;-60
2023/03/04 00:52:22;;;;;;;27.48;16.80;;;;;;;6.08;59.26;101134.47;5052086;28;20064;-60
2023/03/04 00:54:51;;;;;;;30.35;16.23;;;;;;;6.09;59.24;101130.63;5052076;28;20053;-59
2023/03/04 00:57:22;;;;;;;30.40;17.00;;;;;;;6.08;58.97;101124.25;5051945;28;20418;-60
2023/03/04 00:59:50;;;;;;;29.13;16.42;;;;;;;6.10;59.22;101127.56;5051333;28;20060;-59
2023/03/04 01:02:19;;;;;;;29.38;16.65;;;;;;;6.09;59.18;101123.16;5052259;28;20049;-60
2023/03/04 01:04:47;;;;;;;28.40;16.30;;;;;;;6.07;59.52;101124.53;5052340;28;20045;-60
2023/03/04 01:07:15;;;;;;;27.83;16.00;;;;;;;6.07;59.61;101119.81;5040413;28;20056;-59
2023/03/04 01:09:42;;;;;;;26.30;15.98;;;;;;;6.11;59.29;101120.13;5051080;28;20064;-59
2023/03/04 01:12:10;;;;;;;24.85;15.52;;;;;;;6.13;59.34;101123.41;5063664;28;20056;-59
2023/03/04 01:14:39;;;;;;;22.65;14.55;;;;;;;6.19;58.95;101116.00;5054555;28;20041;-59
2023/03/04 01:17:06;;;;;;;26.00;14.83;;;;;;;6.13;59.45;101115.13;5049147;28;20064;-60
2023/03/04 01:19:35;;;;;;;27.05;15.95;;;;;;;6.16;59.26;101113.78;5053343;28;20045;-59
2023/03/04 01:22:04;;;;;;;21.30;14.10;;;;;;;6.23;58.73;101104.13;5060892;28;20059;-60
2023/03/04 01:24:31;;;;;;;27.55;15.40;;;;;;;6.24;59.17;101104.97;5056736;28;20475;-60
2023/03/04 01:27:02;;;;;;;25.83;16.33;;;;;;;6.26;58.99;101100.00;5050088;28;20045;-59
2023/03/04 01:29:30;;;;;;;23.85;14.15;;;;;;;6.27;59.35;101099.72;5048989;28;20057;-60
2023/03/04 01:31:59;;;;;;;26.65;14.95;;;;;;;6.32;58.87;101098.06;5056610;28;20048;-59
2023/03/04 01:34:26;;;;;;;25.20;15.55;;;;;;;6.39;59.06;101102.25;5057582;28;20410;-59
2023/03/04 01:36:54;;;;;;;24.90;15.05;;;;;;;6.37;59.00;101098.94;5064449;28;20067;-60
2023/03/04 01:39:21;;;;;;;24.42;15.18;;;;;;;6.39;59.06;101090.38;5046104;28;20083;-60
2023/03/04 01:41:49;;;;;;;22.98;15.00;;;;;;;6.38;58.96;101092.28;5047347;28;20084;-59
2023/03/04 01:44:17;;;;;;;20.17;13.25;;;;;;;6.47;58.84;101089.84;5047120;28;20045;-59
2023/03/04 01:46:50;;;;;;;24.63;13.98;;;;;;;6.48;58.54;101088.72;5047346;28;20052;-60
2023/03/04 01:49:22;;;;;;;24.52;13.07;;;;;;;6.44;58.69;101085.66;5050483;28;20069;-60
2023/03/04 01:51:57;;;;;;;21.20;13.57;;;;;;;6.45;58.44;101084.56;5049830;28;20056;-60
2023/03/04 01:54:24;;;;;;;20.95;12.75;;;;;;;6.49;58.71;101087.63;5050858;28;20052;-60
2023/03/04 01:56:53;;;;;;;21.15;12.82;;;;;;;6.48;58.77;101074.88;5050834;28;20422;-60
2023/03/04 01:59:22;;;;;;;23.88;13.68;;;;;;;6.46;58.82;101083.44;5051999;28;20048;-60
2023/03/04 02:01:51;;;;;;;21.95;12.32;;;;;;;6.53;59.15;101071.28;5050999;28;20406;-60
2023/03/04 02:04:23;;;;;;;20.58;13.25;;;;;;;6.56;59.32;101076.31;5051352;28;20498;-60
2023/03/04 02:06:52;;;;;;;24.67;13.43;;;;;;;6.57;59.53;101075.19;5050788;28;20055;-60
2023/03/04 02:09:20;;;;;;;23.52;13.48;;;;;;;6.58;59.23;101077.69;5044584;28;20052;-59
2023/03/04 02:11:52;;;;;;;19.92;12.13;;;;;;;6.63;59.26;101072.16;5051145;28;20049;-60
2023/03/04 02:14:23;;;;;;;21.17;12.40;;;;;;;6.64;59.29;101078.53;5050180;28;20063;-60
2023/03/04 02:17:08;;;;;;;24.45;13.27;;;;;;;6.68;58.96;101074.13;5051743;28;20053;-59
2023/03/04 02:19:47;;;;;;;24.27;11.73;;;;;;;6.67;59.47;101075.22;5050439;28;20060;-59
2023/03/04 02:22:23;;;;;;;19.63;10.67;;;;;;;6.69;58.55;101070.22;5050036;28;20060;-59
2023/03/04 02:24:58;;;;;;;22.70;12.27;;;;;;;6.68;58.65;101069.41;5045641;28;20483;-59
2023/03/04 02:27:30;;;;;;;21.17;11.02;;;;;;;6.69;58.78;101070.22;5046886;28;20045;-59
2023/03/04 02:29:57;;;;;;;22.50;11.82;;;;;;;6.73;58.71;101073.28;5050717;28;20056;-59
2023/03/04 02:32:25;;;;;;;27.13;12.40;;;;;;;6.73;58.91;101063.03;5049726;28;20387;-60
2023/03/04 02:34:53;;;;;;;21.50;11.20;;;;;;;6.75;58.45;101068.31;5050196;28;20060;-60
2023/03/04 02:37:20;;;;;;;20.48;12.13;;;;;;;6.70;58.56;101056.13;5049959;28;20068;-61
2023/03/04 02:39:49;;;;;;;20.75;11.10;;;;;;;6.71;58.54;101063.31;5051190;28;20063;-60
2023/03/04 02:42:18;;;;;;;20.67;11.82;;;;;;;6.73;59.19;101054.75;5048476;28;20049;-61
2023/03/04 02:44:49;;;;;;;23.15;12.27;;;;;;;6.73;59.39;101060.28;5050496;28;20064;-60
2023/03/04 02:47:20;;;;;;;20.67;10.93;;;;;;;6.76;59.35;101059.75;5049991;28;20422;-60
2023/03/04 02:49:48;;;;;;;21.00;11.20;;;;;;;6.80;58.81;101055.28;5049608;28;20057;-60
2023/03/04 02:52:19;;;;;;;18.45;11.18;;;;;;;6.81;59.39;101051.44;5050103;28;20060;-60
2023/03/04 02:54:47;;;;;;;22.95;11.32;;;;;;;6.78;59.05;101049.19;5049730;28;20052;-60
2023/03/04 02:57:22;;;;;;;22.15;10.77;;;;;;;6.78;59.45;101056.69;5049262;28;20060;-59
2023/03/04 02:59:54;;;;;;;16.50;10.65;;;;;;;6.80;58.82;101052.53;5048993;28;20056;-60
2023/03/04 03:02:21;;;;;;;18.25;10.60;;;;;;;6.83;58.90;101053.94;5049958;28;20061;-60
2023/03/04 03:04:49;;;;;;;21.65;8.75;;;;;;;6.82;58.43;101036.47;5049460;28;20048;-60
2023/03/04 03:07:16;;;;;;;18.80;9.32;;;;;;;6.88;57.91;101040.91;5050265;28;20060;-60
2023/03/04 03:09:44;;;;;;;21.48;7.88;;;;;;;6.90;57.53;101041.47;5049725;28;20414;-60
2023/03/04 03:12:12;;;;;;;16.75;7.32;;;;;;;6.86;57.99;101045.06;5049801;28;20063;-60
2023/03/04 03:14:39;;;;;;;17.35;6.28;;;;;;;6.91;57.37;101040.38;5049528;28;20049;-60
2023/03/04 03:17:09;;;;;;;15.65;6.25;;;;;;;6.96;57.08;101039.53;5048773;28;20057;-60
2023/03/04 03:19:36;;;;;;;;;;;;;;;6.96;56.22;101024.88;5050339;28;20061;-60
2023/03/04 03:22:03;;;;;;;10.82;3.60;;;;;;;6.95;56.80;101034.25;5049889;28;19921;-60
2023/03/04 03:24:31;;;;;;;12.52;3.65;;;;;;;6.97;56.64;101035.69;5049531;28;20517;-61
2023/03/04 03:26:59;;;;;;;14.80;4.13;;;;;;;6.96;56.30;101027.63;5050577;28;20057;-59
2023/03/04 03:29:27;;;;;;;14.52;3.67;;;;;;;7.03;56.20;101034.53;5049563;28;20521;-60
2023/03/04 03:31:55;;;;;;;14.07;3.70;;;;;;;7.05;56.14;101029.56;5049081;28;20391;-60
2023/03/04 03:34:24;;;;;;;15.48;3.78;;;;;;;7.12;56.56;101026.53;5048344;28;20064;-60
2023/03/04 03:36:52;;;;;;;15.63;4.70;;;;;;;7.17;56.21;101025.69;5049322;28;20056;-60
2023/03/04 03:39:20;;;;;;;14.88;3.60;;;;;;;7.18;56.50;101019.88;5050153;28;20476;-60
2023/03/04 03:41:47;;;;;;;15.68;4.45;;;;;;;7.25;56.12;101022.38;5049424;28;20517;-60
2023/03/04 03:44:15;;;;;;;19.30;4.68;;;;;;;7.27;55.88;101029.28;5048929;28;20053;-60
2023/03/04 03:46:42;;;;;;;15.07;4.35;;;;;;;7.30;56.28;101025.94;5049395;28;20053;-60
2023/03/04 03:49:10;;;;;;;17.23;5.05;;;;;;;7.31;56.16;101022.06;5048207;28;20057;-60
2023/03/04 03:51:39;;;;;;;11.88;3.85;;;;;;;7.31;56.21;101019.31;5030724;28;20061;-60
2023/03/04 03:54:06;;;;;;;14.20;4.30;;;;;;;7.35;55.71;101021.50;5046503;28;20053;-60
2023/03/04 03:56:33;;;;;;;14.10;3.72;;;;;;;7.39;55.94;101022.59;5048768;28;20053;-60
2023/03/04 03:59:01;;;;;;;12.63;4.15;;;;;;;7.36;55.55;101014.88;5048589;28;20056;-59
2023/03/04 04:01:28;;;;;;;14.07;3.20;;;;;;;7.40;55.31;101015.97;5048810;28;20478;-60
2023/03/04 04:03:56;;;;;;;19.17;4.50;;;;;;;7.39;55.32;101012.38;5048020;28;20052;-61
2023/03/04 04:06:23;;;;;;;13.88;4.53;;;;;;;7.45;55.17;101015.94;5047649;28;20054;-61
2023/03/04 04:08:52;;;;;;;13.25;3.88;;;;;;;7.43;55.93;101020.94;5049198;28;20491;-60
2023/03/04 04:11:20;;;;;;;12.18;4.05;;;;;;;7.48;55.02;101018.16;5048732;28;20045;-60
2023/03/04 04:13:47;;;;;;;11.85;3.40;;;;;;;7.43;55.29;101010.72;5049097;28;20487;-60
2023/03/04 04:16:15;;;;;;;11.10;4.10;;;;;;;7.42;55.67;101019.28;5048942;28;20056;-59
2023/03/04 04:18:42;;;;;;;15.18;4.60;;;;;;;7.46;55.36;101020.41;5041971;28;20055;-60
2023/03/04 04:21:10;;;;;;;11.38;3.88;;;;;;;7.44;55.84;101011.53;5048769;28;20056;-60
2023/03/04 04:23:42;;;;;;;20.95;6.40;;;;;;;7.45;56.47;101010.41;5047949;28;20080;-60
2023/03/04 04:26:13;;;;;;;11.60;5.18;;;;;;;7.37;55.75;101009.06;5048884;28;20065;-59
2023/03/04 04:28:43;;;;;;;12.18;4.32;;;;;;;7.45;55.33;101011.22;5049051;28;20056;-60
2023/03/04 04:31:10;;;;;;;16.00;4.80;;;;;;;7.45;55.84;101013.16;5048542;28;20056;-60
2023/03/04 04:33:38;;;;;;;13.50;4.30;;;;;;;7.49;55.51;101011.50;5049385;28;20507;-60
2023/03/04 04:36:06;;;;;;;11.77;3.80;;;;;;;7.53;55.26;101007.06;5048410;28;20057;-60
2023/03/04 04:38:44;;;;;;;11.35;3.67;;;;;;;7.58;54.97;101014.53;5048193;28;20064;-60
2023/03/04 04:41:23;;;;;;;14.60;4.05;;;;;;;7.46;54.69;101012.91;5047756;27;20049;-60
2023/03/04 04:43:51;;;;;;;12.43;4.70;;;;;;;7.49;55.49;101025.38;5048899;28;20060;-60
2023/03/04 04:46:19;;;;;;;15.95;4.22;;;;;;;7.52;55.10;101017.31;5048861;28;20056;-60
2023/03/04 04:48:47;;;;;;;14.48;4.00;;;;;;;7.54;55.04;101019.81;5052146;28;20056;-60
2023/03/04 04:51:14;;;;;;;9.77;3.53;;;;;;;7.58;55.24;101017.31;5051803;28;20073;-60
2023/03/04 04:53:42;;;;;;;14.00;3.67;;;;;;;7.56;55.43;101016.75;5052677;28;20048;-61
2023/03/04 04:56:15;;;;;;;15.65;5.45;;;;;;;7.58;55.52;101020.94;5071569;28;20056;-60
2023/03/04 04:58:44;;;;;;;13.10;4.28;;;;;;;7.62;55.40;101019.25;5047437;28;20097;-60
2023/03/04 05:01:13;;;;;;;13.32;3.58;;;;;;;7.59;55.01;101019.81;5051482;28;20053;-60
2023/03/04 05:03:42;;;;;;;13.70;4.13;;;;;;;7.60;55.55;101026.16;5052843;28;20407;-60
2023/03/04 05:06:11;;;;;;;12.50;3.30;;;;;;;7.56;55.95;101022.28;5051471;28;20410;-59
2023/03/04 05:08:39;;;;;;;13.05;3.65;;;;;;;7.61;54.92;101020.34;5051259;28;20077;-60
2023/03/04 05:11:07;;;;;;;8.45;2.88;;;;;;;7.59;55.28;101017.03;5031441;28;20057;-59
2023/03/04 05:13:35;;;;;;;13.05;3.75;;;;;;;7.59;54.75;101022.56;5030953;28;20495;-60
2023/03/04 05:16:08;;;;;;;10.75;3.10;;;;;;;7.53;55.16;101024.50;5030683;28;20049;-60
2023/03/04 05:18:35;;;;;;;11.18;3.70;;;;;;;7.57;55.43;101016.47;5031682;28;20080;-60
2023/03/04 05:21:04;;;;;;;9.68;3.40;;;;;;;7.57;54.13;101010.94;5032985;28;20045;-61
2023/03/04 05:23:33;;;;;;;10.88;4.63;;;;;;;7.58;55.40;101014.53;5031365;28;20053;-61
2023/03/04 05:26:10;;;;;;;12.60;4.32;;;;;;;7.56;54.92;101017.59;5031631;28;20054;-60
2023/03/04 05:28:38;;;;;;;13.65;3.55;;;;;;;7.62;54.86;101004.53;5031271;28;20060;-64
2023/03/04 05:31:07;;;;;;;10.65;3.33;;;;;;;7.62;55.12;101008.16;5031313;28;20053;-60
2023/03/04 05:33:34;;;;;;;8.23;2.60;;;;;;;7.63;54.11;101009.81;5030767;28;20060;-61
2023/03/04 05:36:03;;;;;;;10.77;3.60;;;;;;;7.60;54.83;101007.63;5031183;28;20492;-61
2023/03/04 05:38:31;;;;;;;8.70;2.72;;;;;;;7.58;54.63;101004.28;5031792;28;20502;-60
2023/03/04 05:41:00;;;;;;;9.95;2.78;;;;;;;7.60;54.14;101010.38;5031120;28;20060;-60
2023/03/04 05:43:46;;;;;;;12.95;3.13;;;;;;;7.59;54.51;101013.44;5031148;28;20064;-60
2023/03/04 05:46:17;;;;;;;12.98;3.13;;;;;;;7.58;53.67;101015.38;5031541;28;20049;-59
2023/03/04 05:48:45;;;;;;;8.63;2.75;;;;;;;7.53;55.30;101009.84;5030519;28;20053;-59
2023/03/04 05:51:12;;;;;;;9.63;2.53;;;;;;;7.61;54.21;101016.75;5030898;28;20049;-60
2023/03/04 05:53:44;;;;;;;9.25;2.95;;;;;;;7.59;55.28;101014.25;5030841;28;20057;-60
2023/03/04 05:56:18;;;;;;;7.15;3.03;;;;;;;7.66;55.35;101016.72;5032055;28;20073;-59
2023/03/04 05:58:46;;;;;;;11.68;3.15;;;;;;;7.66;54.46;101014.78;5030637;28;20415;-60
2023/03/04 06:01:16;;;;;;;8.40;2.70;;;;;;;7.70;54.62;101017.81;5031167;28;20076;-60
2023/03/04 06:03:48;;;;;;;10.55;3.08;;;;;;;7.68;54.74;101020.06;5030885;28;20511;-60
2023/03/04 06:06:15;;;;;;;14.80;3.25;;;;;;;7.68;54.35;101018.09;5016137;28;20061;-61
2023/03/04 06:08:43;;;;;;;13.23;2.97;;;;;;;7.59;54.39;101021.75;5028453;28;20065;-61
2023/03/04 06:11:13;;;;;;;7.72;2.70;;;;;;;7.63;55.04;101023.66;5030982;28;20057;-60
2023/03/04 06:13:40;;;;;;;9.73;3.05;;;;;;;7.55;54.50;101021.47;5030639;28;20497;-60
2023/03/04 06:16:09;;;;;;;9.57;2.55;;;;;;;7.58;54.45;101026.47;5030299;28;20053;-60
2023/03/04 06:18:38;;;;;;;9.52;2.63;;;;;;;7.62;54.95;101033.13;5030798;28;20072;-60
2023/03/04 06:21:06;;;;;;;11.88;2.88;;;;;;;7.63;54.33;101034.75;5030765;28;20061;-60
2023/03/04 06:23:33;;;;;;;10.15;2.70;;;;;;;7.61;55.04;101042.53;5029535;28;20100;-61
2023/03/04 06:26:01;;;;;;;8.77;2.70;;;;;;;7.63;54.61;101039.47;5085647;27;20047;-61
2023/03/04 06:28:29;;;;;;;12.02;2.72;;;;;;;7.67;54.76;101038.63;5052927;27;20076;-61
2023/03/04 06:30:57;;;;;;;8.20;2.47;;;;;;;7.71;54.41;101041.69;5030488;28;20065;-60
2023/03/04 06:33:25;;;;;;;10.93;3.30;;;;;;;7.71;54.45;101036.97;5030307;28;20053;-60
2023/03/04 06:35:58;;;;;;;13.57;3.38;;;;;;;7.73;54.28;101043.06;5030597;28;20064;-60
2023/03/04 06:38:26;;;;;;;10.20;2.55;;;;;;;7.77;55.04;101039.72;5030604;28;20065;-60
2023/03/04 06:40:57;;;;;;;10.63;2.97;;;;;;;7.76;54.73;101041.66;5028699;28;20057;-60
2023/03/04 06:43:25;;;;;;;11.70;2.90;;;;;;;7.73;54.48;101039.47;5030500;28;20046;-60
2023/03/04 06:45:53;;;;;;;11.23;3.10;;;;;;;7.79;54.63;101049.44;5029720;28;20057;-60
2023/03/04 06:48:20;;;;;;;8.57;2.55;;;;;;;7.80;55.22;101051.06;5030464;28;20049;-60
2023/03/04 06:50:58;;;;;;;9.60;2.65;;;;;;;7.83;55.77;101052.44;5030424;28;20069;-60
2023/03/04 06:53:26;;;;;;;9.50;3.80;;;;;;;7.85;55.38;101047.44;5029959;28;20054;-60
2023/03/04 06:55:59;;;;;;;8.68;2.53;;;;;;;7.88;55.48;101052.44;5029624;28;20058;-60
2023/03/04 06:58:27;;;;;;;12.50;3.20;;;;;;;7.87;55.05;101051.63;5029213;28;20050;-60
2023/03/04 07:00:55;;;;;;;11.80;2.80;;;;;;;7.92;55.45;101054.38;5029749;28;20049;-60
2023/03/04 07:03:23;;;;;;;10.52;2.90;;;;;;;8.02;54.35;101056.28;5027761;28;20045;-60
2023/03/04 07:05:50;;;;;;;13.45;2.83;;;;;;;8.02;55.12;101055.44;5029797;28;20399;-60
2023/03/04 07:08:22;;;;;;;12.18;3.17;;;;;;;8.03;56.22;101057.94;5026910;28;20506;-60
2023/03/04 07:10:50;;;;;;;8.10;2.83;;;;;;;8.13;56.41;101060.69;5019487;28;20053;-60
2023/03/04 07:13:17;;;;;;;10.95;2.67;;;;;;;8.12;56.68;101058.19;5022954;28;20056;-60
2023/03/04 07:15:45;;;;;;;6.10;2.63;;;;;;;8.33;56.05;101054.19;5028013;28;20487;-60
2023/03/04 07:18:12;;;;;;;9.18;2.65;;;;;;;8.40;55.09;101059.47;5027078;28;20049;-59
2023/03/04 07:20:40;;;;;;;9.77;3.35;;;;;;;8.52;54.31;101056.34;5037406;28;20057;-60
2023/03/04 07:23:07;;;;;;;10.27;2.97;;;;;;;8.59;54.35;101059.66;5028802;28;20054;-60
2023/03/04 07:25:36;;;;;;;8.00;2.33;;;;;;;8.68;54.27;101063.47;5030182;28;20069;-60
2023/03/04 07:28:04;;;;;;;10.10;3.25;;;;;;;8.69;53.58;101067.94;5029736;28;20498;-60
2023/03/04 07:30:32;;;;;;;10.32;3.03;;;;;;;8.71;53.31;101064.84;5030951;28;20049;-59
2023/03/04 07:33:02;;;;;;;10.93;2.72;;;;;;;8.76;52.40;101067.59;5041444;28;20049;-61
2023/03/04 07:35:29;;;;;;;6.88;2.40;;;;;;;8.71;53.58;101070.41;5029431;28;20418;-60
2023/03/04 07:37:57;;;;;;;9.13;2.50;;;;;;;8.75;52.89;101074.25;5028028;28;20053;-61
2023/03/04 07:40:24;;;;;;;10.55;3.45;;;;;;;8.75;53.26;101077.03;5028763;28;20045;-60
2023/03/04 07:42:54;;;;;;;10.90;3.22;;;;;;;8.76;53.78;101066.75;5033815;28;20055;-60
2023/03/04 07:45:32;;;;;;;11.15;3.10;;;;;;;8.76;52.54;101073.16;5025643;28;20784;-60
2023/03/04 07:47:59;;;;;;;9.93;2.45;;;;;;;8.77;53.75;101074.00;5024674;28;20046;-61
2023/03/04 07:50:27;;;;;;;8.20;3.20;;;;;;;8.81;52.82;101081.44;5027787;28;20061;-59
2023/03/04 07:53:07;;;;;;;10.90;3.05;;;;;;;8.83;53.79;101073.66;5028126;28;20048;-60
2023/03/04 07:55:41;;;;;;;8.35;2.72;;;;;;;8.83;53.73;101075.63;5029114;28;20054;-65
2023/03/04 07:58:18;;;;;;;12.43;2.90;;;;;;;8.85;53.00;101087.28;5023277;28;20045;-60
2023/03/04 08:00:46;;;;;;;7.13;2.47;;;;;;;8.81;52.73;101081.44;5022972;28;20050;-60
2023/03/04 08:03:13;;;;;;;9.85;2.70;;;;;;;8.85;54.42;101079.75;5024481;28;20499;-60
2023/03/04 08:05:41;;;;;;;9.05;2.67;;;;;;;8.90;53.66;101073.34;5023848;28;20076;-60
2023/03/04 08:08:09;;;;;;;9.68;2.85;;;;;;;8.96;55.26;101071.34;5023621;28;20041;-60
2023/03/04 08:10:38;;;;;;;8.30;3.53;;;;;;;9.30;54.38;101072.22;5032752;28;20061;-60
2023/03/04 08:13:09;;;;;;;6.88;2.40;;;;;;;9.82;52.84;101074.50;5025922;28;20057;-60
2023/03/04 08:15:41;;;;;;;7.30;3.25;;;;;;;10.41;52.80;101067.69;5027849;28;20049;-60
2023/03/04 08:18:12;;;;;;;6.45;2.58;;;;;;;11.10;51.03;101072.81;5027210;28;20391;-60
2023/03/04 08:20:47;;;;;;;9.00;3.35;;;;;;;11.43;49.67;101064.47;5033476;28;20045;-60
2023/03/04 08:23:15;;;;;;;9.98;2.65;;;;;;;11.48;48.89;101067.16;5080089;27;20051;-60
2023/03/04 08:25:49;;;;;;;12.57;2.72;;;;;;;11.54;48.78;101065.94;5033883;27;20053;-61
2023/03/04 08:28:16;;;;;;;13.88;5.97;;;;;;;12.11;47.89;101062.94;5028300;28;20049;-60
2023/03/04 08:31:01;;;;;;;20.67;12.15;;;;;;;13.60;46.03;101060.34;5029317;27;20430;-61
2023/03/04 08:33:29;;;;;;;8.13;3.15;;;;;;;17.11;39.81;101049.16;5033832;27;20064;-61
2023/03/04 08:35:56;;;;;;;7.75;2.90;;;;;;;17.58;37.23;101046.06;5022283;27;20038;-60
2023/03/04 08:38:27;;;;;;;6.78;2.28;;;;;;;17.47;36.45;101042.00;5029588;28;20053;-60
2023/03/04 08:40:57;;;;;;;9.23;2.30;;;;;;;17.09;36.77;101043.03;5030026;27;20041;-61
2023/03/04 08:43:26;;;;;;;7.00;2.03;;;;;;;16.91;36.44;101031.94;5032693;28;20046;-60
2023/03/04 08:45:58;;;;;;;8.13;2.30;;;;;;;16.89;36.73;101039.09;5029668;28;20053;-60
2023/03/04 08:48:26;;;;;;;8.48;2.35;;;;;;;18.19;34.18;101040.53;5031042;28;20041;-62
2023/03/04 08:50:57;;;;;;;6.10;2.40;;;;;;;18.20;34.25;101044.16;5028434;28;20062;-60
2023/03/04 08:53:25;;;;;;;7.38;2.05;;;;;;;17.62;35.09;101041.38;5029760;28;20060;-60
2023/03/04 08:55:53;;;;;;;6.53;2.45;;;;;;;17.15;35.84;101050.09;5029491;28;20057;-60
2023/03/04 08:58:23;;;;;;;5.00;2.20;;;;;;;16.97;36.27;101041.81;5030813;27;20052;-61
2023/03/04 09:00:51;;;;;;;6.15;2.13;;;;;;;16.90;35.33;101033.09;5029731;28;20049;-60
2023/03/04 09:03:23;;;;;;;7.35;2.88;;;;;;;16.64;35.87;101039.72;5029666;28;20060;-60
2023/03/04 09:05:58;;;;;;;6.80;2.30;;;;;;;16.24;37.15;101037.31;5031202;27;20060;-60
2023/03/04 09:08:26;;;;;;;4.97;2.17;;;;;;;15.70;37.94;101041.84;5030662;28;20045;-60
2023/03/04 09:10:55;;;;;;;5.15;2.03;;;;;;;15.59;38.38;101035.75;5028991;28;20057;-60
2023/03/04 09:13:23;;;;;;;5.68;1.90;;;;;;;15.01;38.98;101044.44;5025311;27;20070;-60
2023/03/04 09:15:52;;;;;;;5.53;2.13;;;;;;;14.59;39.89;101044.09;5030059;28;20046;-60
2023/03/04 09:18:36;;;;;;;;;;;;;;;14.14;40.11;101043.44;5022399;28;20049;-60
2023/03/04 09:21:07;;;;;;;4.65;1.60;;;;;;;13.73;41.71;101048.25;5027267;28;19921;-60
2023/03/04 09:23:45;;;;;;;5.45;1.80;;;;;;;13.64;41.74;101047.34;5031615;28;20049;-60
2023/03/04 09:26:22;;;;;;;6.10;1.73;;;;;;;13.59;41.58;101051.13;5026612;28;20446;-60
2023/03/04 09:28:56;;;;;;;8.07;1.60;;;;;;;13.38;42.01;101052.81;5027917;28;20053;-60
2023/03/04 09:31:24;;;;;;;6.20;2.00;;;;;;;13.08;42.63;101044.00;5027266;27;20053;-60
2023/03/04 09:33:54;;;;;;;8.43;2.00;;;;;;;12.82;43.97;101051.34;5030801;28;20506;-60
2023/03/04 09:36:21;;;;;;;;;;;;;;;12.59;44.72;101045.72;5031186;28;20454;-60
2023/03/04 09:38:48;;;;;;;7.18;2.10;;;;;;;12.38;45.24;101057.31;5029052;28;19925;-61
2023/03/04 09:41:18;;;;;;;6.97;2.17;;;;;;;12.23;45.33;101051.25;5028372;28;20053;-60
2023/03/04 09:43:47;;;;;;;5.72;2.70;;;;;;;12.04;46.43;101056.94;5030677;28;20053;-60
2023/03/04 09:46:19;;;;;;;5.93;2.20;;;;;;;11.80;47.15;101055.16;5028800;28;20053;-61
2023/03/04 09:48:49;;;;;;;5.57;2.50;;;;;;;11.67;47.57;101047.56;5029550;28;20075;-60
2023/03/04 09:51:22;;;;;;;8.85;2.88;;;;;;;11.70;47.78;101053.38;5029038;28;20568;-60
2023/03/04 09:54:02;;;;;;;6.25;2.58;;;;;;;11.95;47.49;101054.06;5028902;28;20058;-60
2023/03/04 09:56:37;;;;;;;6.03;3.38;;;;;;;11.94;47.53;101044.00;5027285;28;20053;-61
2023/03/04 09:59:15;;;;;;;6.78;2.60;;;;;;;11.94;47.64;101049.59;5030215;28;20050;-61
2023/03/04 10:01:49;;;;;;;7.43;2.70;;;;;;;11.79;48.06;101042.31;5028091;28;20049;-60
2023/03/04 10:04:22;;;;;;;4.25;2.25;;;;;;;11.69;48.92;101042.50;5030158;28;20188;-61
2023/03/04 10:06:53;;;;;;;6.47;2.22;;;;;;;11.87;48.11;101036.03;5028373;28;20061;-60
2023/03/04 10:09:24;;;;;;;5.97;2.47;;;;;;;11.90;48.04;101043.78;5027747;28;20480;-61
2023/03/04 10:12:00;;;;;;;8.27;3.10;;;;;;;11.78;47.93;101047.09;5043904;27;20061;-60
2023/03/04 10:14:34;;;;;;;7.95;3.08;;;;;;;11.85;47.69;101037.47;5029840;28;20056;-61
2023/03/04 10:17:08;;;;;;;8.73;3.95;;;;;;;11.87;47.36;101032.41;5025257;28;20049;-60
2023/03/04 10:19:51;;;;;;;6.93;3.60;;;;;;;11.76;48.03;101032.59;5027047;28;20046;-63
2023/03/04 10:22:26;;;;;;;6.53;3.83;;;;;;;11.81;48.48;101039.22;5030199;28;20057;-63
2023/03/04 10:24:56;;;;;;;7.10;3.30;;;;;;;11.82;48.94;101046.44;5030347;28;20482;-63
2023/03/04 10:27:23;;;;;;;;;;;;;;;11.48;49.66;101036.47;5028965;27;20057;-64
2023/03/04 10:29:51;;;;;;;8.18;3.42;;;;;;;11.67;49.67;101036.41;5030763;28;19921;-64
2023/03/04 10:32:20;;;;;;;6.40;3.97;;;;;;;11.90;49.50;101042.97;5030424;28;20478;-63
2023/03/04 10:34:48;;;;;;;7.68;3.50;;;;;;;12.01;49.57;101044.44;5028774;28;20050;-64
2023/03/04 10:37:15;;;;;;;6.05;3.65;;;;;;;12.33;48.95;101037.91;5030044;28;20049;-63
2023/03/04 10:39:45;;;;;;;6.20;3.47;;;;;;;12.95;48.38;101037.31;5030070;28;20053;-64
2023/03/04 10:42:35;;;;;;;7.13;4.30;;;;;;;14.14;46.61;101027.47;5023087;27;20069;-61
2023/03/04 10:45:04;;;;;;;6.40;3.90;;;;;;;14.36;45.37;101032.16;5028501;27;20111;-61
2023/03/04 10:47:34;;;;;;;6.30;4.05;;;;;;;14.41;43.91;101017.16;5025244;28;20407;-62
2023/03/04 10:50:03;;;;;;;6.78;3.80;;;;;;;14.90;44.38;101015.06;5025000;28;20058;-61
2023/03/04 10:52:32;;;;;;;6.28;4.53;;;;;;;14.58;44.09;101022.81;5023695;28;20072;-62
2023/03/04 10:55:04;;;;;;;7.60;4.10;;;;;;;14.28;44.62;101024.53;5028037;28;20056;-61
2023/03/04 10:57:36;;;;;;;7.80;4.10;;;;;;;14.11;45.60;101028.13;5025822;28;20388;-62
2023/03/04 11:00:27;;;;;;;5.72;3.50;;;;;;;13.91;44.82;101017.50;5027764;28;20046;-61
2023/03/04 11:03:21;;;;;;;6.80;3.20;;;;;;;13.71;46.06;101016.09;5029616;28;20053;-62
2023/03/04 11:05:49;;;;;;;6.53;3.42;;;;;;;13.41;45.94;101015.78;5029916;28;20060;-62
2023/03/04 11:08:18;;;;;;;4.72;3.13;;;;;;;13.11;47.81;101020.16;5029880;28;20054;-62
2023/03/04 11:10:48;;;;;;;6.95;5.07;;;;;;;12.82;47.90;101015.81;5029420;28;20060;-62
2023/03/04 11:13:18;;;;;;;6.47;4.45;;;;;;;12.68;48.80;101010.31;5028817;28;20514;-62
2023/03/04 11:15:51;;;;;;;6.10;4.50;;;;;;;12.46;48.86;101013.88;5029392;28;20049;-62
2023/03/04 11:18:25;;;;;;;7.97;4.60;;;;;;;12.39;48.91;101013.47;5029372;28;20503;-62
2023/03/04 11:20:58;;;;;;;9.52;5.55;;;;;;;12.31;49.41;101015.03;5028965;28;20487;-61
2023/03/04 11:23:34;;;;;;;7.55;4.63;;;;;;;12.07;49.71;101020.84;5029809;28;20045;-62
2023/03/04 11:26:09;;;;;;;9.82;4.45;;;;;;;11.89;50.05;101010.63;5029525;28;20399;-62
2023/03/04 11:28:44;;;;;;;8.48;4.90;;;;;;;11.70;51.36;101017.09;5028132;28;20046;-62
2023/03/04 11:31:16;;;;;;;7.68;5.00;;;;;;;11.60;51.07;101008.91;5029294;28;20057;-62
2023/03/04 11:33:51;;;;;;;9.95;5.25;;;;;;;11.34;51.82;101014.16;5029013;28;20056;-62
2023/03/04 11:36:29;;;;;;;9.45;5.32;;;;;;;11.39;52.46;101014.03;5029209;28;20491;-62